sensor_id;sensor_type;location;lat;lon;timestamp;pressure;altitude;pressure_sealevel;temperature;humidity
46722;BME280;32455;43.430;23.136;2023-03-04T00:00:03;98212.59;;;4.89;100.00
46722;BME280;32455;43.430;23.136;2023-03-04T00:02:49;98195.06;;;4.80;100.00
46722;BME280;32455;43.430;23.136;2023-03-04T00:05:34;98210.75;;;4.74;100.00
46722;BME280;32455;43.430;23.136;2023-03-04T00:08:20;98209.88;;;4.67;100.00
46722;BME280;32455;43.430;23.136;2023-03-04T00:11:05;98223.91;;;4.61;100.00
46722;BME280;32455;43.430;23.136;2023-03-04T00:13:50;98215.91;;;4.61;100.00
46722;BME280;32455;43.430;23.136;2023-03-04T00:16:35;98211.25;;;4.63;100.00
46722;BME280;32455;43.430;23.136;2023-03-04T00:19:20;98220.06;;;4.64;100.00
46722;BME280;32455;43.430;23.136;2023-03-04T00:22:05;98197.00;;;4.56;100.00
46722;BME280;32455;43.430;23.136;2023-03-04T00:24:50;98225.28;;;4.72;100.00
46722;BME280;32455;43.430;23.136;2023-03-04T00:27:36;98227.94;;;4.57;100.00
46722;BME280;32455;43.430;23.136;2023-03-04T00:30:22;98229.06;;;4.63;100.00
46722;BME280;32455;43.430;23.136;2023-03-04T00:33:07;98236.06;;;4.41;100.00
46722;BME280;32455;43.430;23.136;2023-03-04T00:35:53;98225.75;;;4.46;100.00
46722;BME280;32455;43.430;23.136;2023-03-04T00:38:39;98204.50;;;4.23;100.00
46722;BME280;32455;43.430;23.136;2023-03-04T00:41:24;98224.44;;;4.42;100.00
46722;BME280;32455;43.430;23.136;2023-03-04T00:44:10;98222.78;;;4.41;100.00
46722;BME280;32455;43.430;23.136;2023-03-04T00:46:56;98230.03;;;4.47;100.00
46722;BME280;32455;43.430;23.136;2023-03-04T00:49:41;98226.63;;;4.53;100.00
46722;BME280;32455;43.430;23.136;2023-03-04T00:52:26;98214.34;;;4.52;100.00
46722;BME280;32455;43.430;23.136;2023-03-04T00:55:12;98203.50;;;4.53;100.00
46722;BME280;32455;43.430;23.136;2023-03-04T00:57:57;98220.88;;;4.64;100.00
46722;BME280;32455;43.430;23.136;2023-03-04T01:00:43;98211.88;;;4.50;100.00
46722;BME280;32455;43.430;23.136;2023-03-04T01:03:28;98202.22;;;4.35;100.00
46722;BME280;32455;43.430;23.136;2023-03-04T01:06:16;98209.38;;;4.34;100.00
46722;BME280;32455;43.430;23.136;2023-03-04T01:09:02;98201.38;;;4.19;100.00
46722;BME280;32455;43.430;23.136;2023-03-04T01:11:47;98201.47;;;4.11;100.00
46722;BME280;32455;43.430;23.136;2023-03-04T01:14:32;98206.81;;;4.11;100.00
46722;BME280;32455;43.430;23.136;2023-03-04T01:17:17;98207.22;;;4.00;100.00
46722;BME280;32455;43.430;23.136;2023-03-04T01:20:04;98216.38;;;3.97;100.00
46722;BME280;32455;43.430;23.136;2023-03-04T01:22:50;98197.91;;;3.81;100.00
46722;BME280;32455;43.430;23.136;2023-03-04T01:25:35;98196.22;;;3.65;100.00
46722;BME280;32455;43.430;23.136;2023-03-04T01:28:21;98195.16;;;3.74;100.00
46722;BME280;32455;43.430;23.136;2023-03-04T01:31:07;98187.25;;;3.43;100.00
46722;BME280;32455;43.430;23.136;2023-03-04T01:33:52;98190.28;;;3.55;100.00
46722;BME280;32455;43.430;23.136;2023-03-04T01:36:37;98182.81;;;3.59;100.00
46722;BME280;32455;43.430;23.136;2023-03-04T01:39:23;98188.56;;;3.47;100.00
46722;BME280;32455;43.430;23.136;2023-03-04T01:42:19;98173.41;;;3.02;100.00
46722;BME280;32455;43.430;23.136;2023-03-04T01:45:06;98189.75;;;2.83;100.00
46722;BME280;32455;43.430;23.136;2023-03-04T01:47:52;98169.47;;;2.50;100.00
46722;BME280;32455;43.430;23.136;2023-03-04T01:50:38;98167.34;;;2.46;100.00
46722;BME280;32455;43.430;23.136;2023-03-04T01:53:26;98183.63;;;2.35;100.00
46722;BME280;32455;43.430;23.136;2023-03-04T02:01:59;98151.31;;;2.31;100.00
46722;BME280;32455;43.430;23.136;2023-03-04T02:04:45;98169.63;;;2.57;100.00
46722;BME280;32455;43.430;23.136;2023-03-04T02:07:30;98158.28;;;2.71;100.00
46722;BME280;32455;43.430;23.136;2023-03-04T02:10:15;98172.03;;;2.75;100.00
46722;BME280;32455;43.430;23.136;2023-03-04T02:13:01;98164.34;;;2.57;100.00
46722;BME280;32455;43.430;23.136;2023-03-04T02:15:47;98174.56;;;2.13;100.00
46722;BME280;32455;43.430;23.136;2023-03-04T02:18:33;98166.81;;;1.87;100.00
46722;BME280;32455;43.430;23.136;2023-03-04T02:27:22;98165.34;;;1.84;100.00
46722;BME280;32455;43.430;23.136;2023-03-04T02:30:10;98155.25;;;1.63;100.00
46722;BME280;32455;43.430;23.136;2023-03-04T02:32:56;98163.53;;;1.68;100.00
46722;BME280;32455;43.430;23.136;2023-03-04T02:35:41;98161.84;;;1.75;100.00
46722;BME280;32455;43.430;23.136;2023-03-04T02:38:27;98154.41;;;1.71;100.00
46722;BME280;32455;43.430;23.136;2023-03-04T02:41:14;98149.78;;;1.81;100.00
46722;BME280;32455;43.430;23.136;2023-03-04T02:44:00;98151.44;;;1.58;100.00
46722;BME280;32455;43.430;23.136;2023-03-04T02:46:46;98145.16;;;1.59;100.00
46722;BME280;32455;43.430;23.136;2023-03-04T02:49:32;98148.97;;;1.56;100.00
46722;BME280;32455;43.430;23.136;2023-03-04T02:52:21;98139.69;;;1.36;100.00
46722;BME280;32455;43.430;23.136;2023-03-04T02:55:07;98161.06;;;1.59;100.00
46722;BME280;32455;43.430;23.136;2023-03-04T02:57:53;98156.22;;;1.62;100.00
46722;BME280;32455;43.430;23.136;2023-03-04T03:00:39;98145.31;;;1.57;100.00
46722;BME280;32455;43.430;23.136;2023-03-04T03:03:24;98144.66;;;1.31;100.00
46722;BME280;32455;43.430;23.136;2023-03-04T03:06:10;98165.03;;;1.38;100.00
46722;BME280;32455;43.430;23.136;2023-03-04T03:08:55;98153.94;;;1.51;100.00
46722;BME280;32455;43.430;23.136;2023-03-04T03:11:41;98145.00;;;1.68;100.00
46722;BME280;32455;43.430;23.136;2023-03-04T03:14:26;98158.88;;;1.87;100.00
46722;BME280;32455;43.430;23.136;2023-03-04T03:17:12;98156.72;;;1.90;100.00
46722;BME280;32455;43.430;23.136;2023-03-04T03:19:57;98173.41;;;2.07;100.00
46722;BME280;32455;43.430;23.136;2023-03-04T03:22:43;98155.91;;;1.82;100.00
46722;BME280;32455;43.430;23.136;2023-03-04T03:25:28;98147.13;;;1.73;100.00
46722;BME280;32455;43.430;23.136;2023-03-04T03:28:13;98164.47;;;2.00;100.00
46722;BME280;32455;43.430;23.136;2023-03-04T03:30:59;98153.34;;;2.21;100.00
46722;BME280;32455;43.430;23.136;2023-03-04T03:33:44;98170.34;;;2.35;100.00
46722;BME280;32455;43.430;23.136;2023-03-04T03:36:29;98142.59;;;2.14;100.00
46722;BME280;32455;43.430;23.136;2023-03-04T03:39:15;98142.94;;;2.11;100.00
46722;BME280;32455;43.430;23.136;2023-03-04T03:42:00;98151.53;;;2.13;100.00
46722;BME280;32455;43.430;23.136;2023-03-04T03:44:45;98151.72;;;2.04;100.00
46722;BME280;32455;43.430;23.136;2023-03-04T03:47:31;98163.63;;;2.08;100.00
46722;BME280;32455;43.430;23.136;2023-03-04T03:50:16;98150.41;;;1.91;100.00
46722;BME280;32455;43.430;23.136;2023-03-04T03:53:02;98153.91;;;1.84;100.00
46722;BME280;32455;43.430;23.136;2023-03-04T03:55:47;98145.94;;;1.84;100.00
46722;BME280;32455;43.430;23.136;2023-03-04T03:58:32;98158.22;;;1.77;100.00
46722;BME280;32455;43.430;23.136;2023-03-04T04:01:17;98147.75;;;1.99;100.00
46722;BME280;32455;43.430;23.136;2023-03-04T04:04:03;98148.78;;;1.74;100.00
46722;BME280;32455;43.430;23.136;2023-03-04T04:06:48;98140.53;;;1.61;100.00
46722;BME280;32455;43.430;23.136;2023-03-04T04:09:33;98140.53;;;1.61;100.00
46722;BME280;32455;43.430;23.136;2023-03-04T04:12:19;98136.06;;;1.53;100.00
46722;BME280;32455;43.430;23.136;2023-03-04T04:15:04;98131.06;;;1.58;100.00
46722;BME280;32455;43.430;23.136;2023-03-04T04:17:50;98147.66;;;1.60;100.00
46722;BME280;32455;43.430;23.136;2023-03-04T04:20:36;98139.38;;;1.47;100.00
46722;BME280;32455;43.430;23.136;2023-03-04T04:23:21;98141.50;;;1.35;100.00
46722;BME280;32455;43.430;23.136;2023-03-04T04:26:07;98142.69;;;1.24;100.00
46722;BME280;32455;43.430;23.136;2023-03-04T04:28:51;98147.13;;;1.32;100.00
46722;BME280;32455;43.430;23.136;2023-03-04T04:31:37;98133.25;;;1.22;100.00
46722;BME280;32455;43.430;23.136;2023-03-04T04:34:21;98132.06;;;1.00;100.00
46722;BME280;32455;43.430;23.136;2023-03-04T04:37:07;98130.88;;;1.03;100.00
46722;BME280;32455;43.430;23.136;2023-03-04T04:39:52;98145.97;;;1.18;100.00
46722;BME280;32455;43.430;23.136;2023-03-04T04:42:39;98148.94;;;1.23;100.00
46722;BME280;32455;43.430;23.136;2023-03-04T04:45:25;98132.06;;;1.33;100.00
46722;BME280;32455;43.430;23.136;2023-03-04T04:48:10;98147.28;;;1.22;100.00
46722;BME280;32455;43.430;23.136;2023-03-04T04:50:55;98145.25;;;0.92;100.00
46722;BME280;32455;43.430;23.136;2023-03-04T04:53:41;98141.78;;;0.91;100.00
46722;BME280;32455;43.430;23.136;2023-03-04T04:56:27;98139.63;;;0.79;100.00
46722;BME280;32455;43.430;23.136;2023-03-04T04:59:13;98141.13;;;0.89;100.00
46722;BME280;32455;43.430;23.136;2023-03-04T05:01:58;98149.84;;;0.73;100.00
46722;BME280;32455;43.430;23.136;2023-03-04T05:04:43;98153.81;;;0.69;100.00
46722;BME280;32455;43.430;23.136;2023-03-04T05:07:29;98151.00;;;0.71;100.00
46722;BME280;32455;43.430;23.136;2023-03-04T05:10:14;98156.13;;;0.64;100.00
46722;BME280;32455;43.430;23.136;2023-03-04T05:12:59;98157.81;;;0.82;100.00
46722;BME280;32455;43.430;23.136;2023-03-04T05:15:45;98166.13;;;0.95;100.00
46722;BME280;32455;43.430;23.136;2023-03-04T05:18:31;98153.22;;;1.00;100.00
46722;BME280;32455;43.430;23.136;2023-03-04T05:21:16;98162.19;;;1.07;100.00
46722;BME280;32455;43.430;23.136;2023-03-04T05:24:02;98155.06;;;1.08;100.00
46722;BME280;32455;43.430;23.136;2023-03-04T05:26:47;98163.19;;;1.22;100.00
46722;BME280;32455;43.430;23.136;2023-03-04T05:29:32;98151.94;;;1.37;100.00
46722;BME280;32455;43.430;23.136;2023-03-04T05:32:17;98161.38;;;1.56;100.00
46722;BME280;32455;43.430;23.136;2023-03-04T05:35:03;98162.34;;;1.71;100.00
46722;BME280;32455;43.430;23.136;2023-03-04T05:37:48;98170.97;;;1.73;100.00
46722;BME280;32455;43.430;23.136;2023-03-04T05:40:33;98173.09;;;2.02;100.00
46722;BME280;32455;43.430;23.136;2023-03-04T05:43:19;98167.38;;;2.38;100.00
46722;BME280;32455;43.430;23.136;2023-03-04T05:46:06;98189.66;;;2.60;100.00
46722;BME280;32455;43.430;23.136;2023-03-04T05:48:52;98180.84;;;2.67;100.00
46722;BME280;32455;43.430;23.136;2023-03-04T05:51:38;98181.31;;;2.79;100.00
46722;BME280;32455;43.430;23.136;2023-03-04T05:54:24;98187.25;;;3.12;100.00
46722;BME280;32455;43.430;23.136;2023-03-04T05:57:09;98177.91;;;3.24;100.00
46722;BME280;32455;43.430;23.136;2023-03-04T05:59:54;98182.63;;;3.37;100.00
46722;BME280;32455;43.430;23.136;2023-03-04T06:02:40;98185.34;;;3.52;100.00
46722;BME280;32455;43.430;23.136;2023-03-04T06:05:26;98194.56;;;3.64;100.00
46722;BME280;32455;43.430;23.136;2023-03-04T06:08:12;98200.13;;;3.92;100.00
46722;BME280;32455;43.430;23.136;2023-03-04T06:10:57;98197.81;;;4.12;100.00
46722;BME280;32455;43.430;23.136;2023-03-04T06:13:42;98187.84;;;4.29;100.00
46722;BME280;32455;43.430;23.136;2023-03-04T06:16:27;98198.81;;;4.41;100.00
46722;BME280;32455;43.430;23.136;2023-03-04T06:19:12;98209.13;;;4.59;100.00
46722;BME280;32455;43.430;23.136;2023-03-04T06:21:58;98194.63;;;4.61;100.00
46722;BME280;32455;43.430;23.136;2023-03-04T06:24:43;98208.00;;;4.83;100.00
46722;BME280;32455;43.430;23.136;2023-03-04T06:27:29;98212.78;;;5.02;100.00
46722;BME280;32455;43.430;23.136;2023-03-04T06:30:14;98223.03;;;5.20;100.00
46722;BME280;32455;43.430;23.136;2023-03-04T06:33:00;98214.97;;;5.35;100.00
46722;BME280;32455;43.430;23.136;2023-03-04T06:35:45;98225.75;;;5.63;100.00
46722;BME280;32455;43.430;23.136;2023-03-04T06:38:32;98214.38;;;5.75;100.00
46722;BME280;32455;43.430;23.136;2023-03-04T06:41:17;98228.81;;;6.02;100.00
46722;BME280;32455;43.430;23.136;2023-03-04T06:44:03;98212.91;;;6.16;100.00
46722;BME280;32455;43.430;23.136;2023-03-04T06:46:48;98232.78;;;6.35;100.00
46722;BME280;32455;43.430;23.136;2023-03-04T06:49:34;98226.03;;;6.39;100.00
46722;BME280;32455;43.430;23.136;2023-03-04T06:52:19;98235.03;;;6.66;100.00
46722;BME280;32455;43.430;23.136;2023-03-04T06:55:05;98242.66;;;6.69;100.00
46722;BME280;32455;43.430;23.136;2023-03-04T06:57:51;98236.09;;;6.71;100.00
46722;BME280;32455;43.430;23.136;2023-03-04T07:00:37;98231.53;;;6.65;100.00
46722;BME280;32455;43.430;23.136;2023-03-04T07:03:22;98244.09;;;6.71;100.00
46722;BME280;32455;43.430;23.136;2023-03-04T07:06:12;98245.13;;;6.70;100.00
46722;BME280;32455;43.430;23.136;2023-03-04T07:08:58;98235.09;;;6.72;100.00
46722;BME280;32455;43.430;23.136;2023-03-04T07:11:44;98241.25;;;6.80;100.00
46722;BME280;32455;43.430;23.136;2023-03-04T07:14:29;98231.03;;;6.83;100.00
46722;BME280;32455;43.430;23.136;2023-03-04T07:17:14;98240.91;;;6.89;100.00
46722;BME280;32455;43.430;23.136;2023-03-04T07:20:00;98228.41;;;6.96;100.00
46722;BME280;32455;43.430;23.136;2023-03-04T07:22:45;98247.81;;;7.12;100.00
46722;BME280;32455;43.430;23.136;2023-03-04T07:25:31;98236.97;;;7.20;100.00
46722;BME280;32455;43.430;23.136;2023-03-04T07:28:17;98239.84;;;7.25;100.00
46722;BME280;32455;43.430;23.136;2023-03-04T07:31:22;98241.94;;;7.36;100.00
46722;BME280;32455;43.430;23.136;2023-03-04T07:34:11;98240.03;;;7.23;100.00
46722;BME280;32455;43.430;23.136;2023-03-04T07:36:57;98236.38;;;7.31;100.00
46722;BME280;32455;43.430;23.136;2023-03-04T07:39:43;98223.25;;;7.43;100.00
46722;BME280;32455;43.430;23.136;2023-03-04T07:42:28;98225.97;;;7.49;100.00
46722;BME280;32455;43.430;23.136;2023-03-04T07:45:13;98234.00;;;7.56;100.00
46722;BME280;32455;43.430;23.136;2023-03-04T07:47:59;98228.44;;;7.51;100.00
46722;BME280;32455;43.430;23.136;2023-03-04T07:50:44;98220.19;;;7.46;100.00
46722;BME280;32455;43.430;23.136;2023-03-04T07:53:31;98225.16;;;7.62;100.00
46722;BME280;32455;43.430;23.136;2023-03-04T07:56:19;98229.72;;;7.82;100.00
46722;BME280;32455;43.430;23.136;2023-03-04T07:59:05;98230.78;;;7.94;100.00
46722;BME280;32455;43.430;23.136;2023-03-04T08:01:50;98225.41;;;8.00;100.00
46722;BME280;32455;43.430;23.136;2023-03-04T08:04:36;98227.09;;;8.15;100.00
46722;BME280;32455;43.430;23.136;2023-03-04T08:07:21;98230.34;;;8.30;100.00
46722;BME280;32455;43.430;23.136;2023-03-04T08:10:07;98225.63;;;8.25;100.00
46722;BME280;32455;43.430;23.136;2023-03-04T08:12:53;98220.06;;;8.20;100.00
46722;BME280;32455;43.430;23.136;2023-03-04T08:15:41;98218.41;;;8.26;100.00
46722;BME280;32455;43.430;23.136;2023-03-04T08:18:26;98221.50;;;8.29;100.00
46722;BME280;32455;43.430;23.136;2023-03-04T08:21:11;98227.09;;;8.41;100.00
46722;BME280;32455;43.430;23.136;2023-03-04T08:23:58;98235.16;;;8.48;100.00
46722;BME280;32455;43.430;23.136;2023-03-04T08:26:47;98227.72;;;8.57;100.00
46722;BME280;32455;43.430;23.136;2023-03-04T08:29:34;98213.25;;;8.64;100.00
46722;BME280;32455;43.430;23.136;2023-03-04T08:32:20;98230.19;;;8.58;100.00
46722;BME280;32455;43.430;23.136;2023-03-04T08:35:05;98223.16;;;8.64;100.00
46722;BME280;32455;43.430;23.136;2023-03-04T08:37:51;98215.09;;;8.77;100.00
46722;BME280;32455;43.430;23.136;2023-03-04T08:40:36;98223.94;;;8.91;100.00
46722;BME280;32455;43.430;23.136;2023-03-04T08:43:23;98217.41;;;8.47;100.00
46722;BME280;32455;43.430;23.136;2023-03-04T08:46:08;98209.91;;;8.89;100.00
46722;BME280;32455;43.430;23.136;2023-03-04T08:48:54;98209.31;;;8.87;100.00
46722;BME280;32455;43.430;23.136;2023-03-04T08:51:43;98208.69;;;8.85;100.00
46722;BME280;32455;43.430;23.136;2023-03-04T08:54:29;98213.47;;;8.69;100.00
46722;BME280;32455;43.430;23.136;2023-03-04T08:57:15;98205.03;;;8.66;100.00
46722;BME280;32455;43.430;23.136;2023-03-04T09:00:01;98211.94;;;8.93;100.00
46722;BME280;32455;43.430;23.136;2023-03-04T09:02:46;98207.38;;;9.07;100.00
46722;BME280;32455;43.430;23.136;2023-03-04T09:05:32;98187.53;;;9.21;99.88
46722;BME280;32455;43.430;23.136;2023-03-04T09:08:17;98196.28;;;9.42;99.38
46722;BME280;32455;43.430;23.136;2023-03-04T09:11:02;98192.59;;;9.36;95.71
46722;BME280;32455;43.430;23.136;2023-03-04T09:13:48;98197.47;;;9.52;93.87
46722;BME280;32455;43.430;23.136;2023-03-04T09:16:35;98188.19;;;9.55;99.37
46722;BME280;32455;43.430;23.136;2023-03-04T09:19:20;98179.75;;;9.45;99.28
46722;BME280;32455;43.430;23.136;2023-03-04T09:22:06;98188.38;;;9.53;92.86
46722;BME280;32455;43.430;23.136;2023-03-04T09:24:51;98178.78;;;9.39;94.48
46722;BME280;32455;43.430;23.136;2023-03-04T09:27:37;98177.44;;;9.55;94.45
46722;BME280;32455;43.430;23.136;2023-03-04T09:30:23;98184.78;;;9.66;92.22
46722;BME280;32455;43.430;23.136;2023-03-04T09:33:09;98182.63;;;9.50;91.92
46722;BME280;32455;43.430;23.136;2023-03-04T09:35:54;98177.91;;;9.45;92.47
46722;BME280;32455;43.430;23.136;2023-03-04T09:38:42;98188.03;;;9.43;94.80
46722;BME280;32455;43.430;23.136;2023-03-04T09:41:45;98172.41;;;9.34;93.63
46722;BME280;32455;43.430;23.136;2023-03-04T09:44:36;98181.66;;;9.38;93.10
46722;BME280;32455;43.430;23.136;2023-03-04T09:47:22;98172.84;;;9.31;94.46
46722;BME280;32455;43.430;23.136;2023-03-04T09:50:11;98169.94;;;9.32;93.25
46722;BME280;32455;43.430;23.136;2023-03-04T09:53:20;98158.03;;;9.21;96.49
46722;BME280;32455;43.430;23.136;2023-03-04T09:56:08;98155.19;;;9.10;96.89
46722;BME280;32455;43.430;23.136;2023-03-04T10:02:34;98159.22;;;9.64;95.79
46722;BME280;32455;43.430;23.136;2023-03-04T10:05:23;98155.03;;;9.74;94.17
46722;BME280;32455;43.430;23.136;2023-03-04T10:11:24;98146.50;;;9.52;96.39
46722;BME280;32455;43.430;23.136;2023-03-04T10:17:36;98137.66;;;9.45;91.79
46722;BME280;32455;43.430;23.136;2023-03-04T10:20:26;98119.63;;;9.59;92.52
46722;BME280;32455;43.430;23.136;2023-03-04T10:23:16;98127.09;;;9.82;94.83
46722;BME280;32455;43.430;23.136;2023-03-04T10:26:12;98126.72;;;10.03;90.23
46722;BME280;32455;43.430;23.136;2023-03-04T10:28:58;98126.16;;;10.20;88.84
46722;BME280;32455;43.430;23.136;2023-03-04T10:31:47;98107.72;;;10.23;90.92
46722;BME280;32455;43.430;23.136;2023-03-04T10:34:33;98114.25;;;10.34;88.32
46722;BME280;32455;43.430;23.136;2023-03-04T10:37:19;98105.25;;;10.47;77.33
46722;BME280;32455;43.430;23.136;2023-03-04T10:40:18;98099.19;;;10.33;82.15
46722;BME280;32455;43.430;23.136;2023-03-04T10:43:03;98101.50;;;10.30;81.04
46722;BME280;32455;43.430;23.136;2023-03-04T10:45:56;98089.66;;;10.56;75.91
46722;BME280;32455;43.430;23.136;2023-03-04T10:48:43;98081.22;;;10.34;76.69
46722;BME280;32455;43.430;23.136;2023-03-04T10:51:29;98099.63;;;10.48;76.22
46722;BME280;32455;43.430;23.136;2023-03-04T10:54:30;98086.72;;;10.75;75.48
46722;BME280;32455;43.430;23.136;2023-03-04T10:57:18;98081.34;;;10.75;74.14
46722;BME280;32455;43.430;23.136;2023-03-04T11:08:59;98041.41;;;10.61;73.95
46722;BME280;32455;43.430;23.136;2023-03-04T11:11:44;98052.41;;;10.59;72.88
46722;BME280;32455;43.430;23.136;2023-03-04T11:14:40;98033.09;;;10.50;70.68
46722;BME280;32455;43.430;23.136;2023-03-04T11:17:42;98046.38;;;10.45;72.02
46722;BME280;32455;43.430;23.136;2023-03-04T11:20:32;98040.59;;;10.60;72.13
46722;BME280;32455;43.430;23.136;2023-03-04T11:26:20;98025.69;;;10.27;71.57
46722;BME280;32455;43.430;23.136;2023-03-04T11:32:12;98034.34;;;10.66;73.38
46722;BME280;32455;43.430;23.136;2023-03-04T11:35:50;98032.00;;;10.70;68.63
46722;BME280;32455;43.430;23.136;2023-03-04T11:38:48;98022.00;;;10.77;74.51
46722;BME280;32455;43.430;23.136;2023-03-04T11:41:37;98017.03;;;10.07;70.51
46722;BME280;32455;43.430;23.136;2023-03-04T11:44:24;98018.59;;;10.51;70.32
46722;BME280;32455;43.430;23.136;2023-03-04T11:47:31;97996.78;;;10.90;72.03
46722;BME280;32455;43.430;23.136;2023-03-04T11:50:37;98005.81;;;10.65;68.03
46722;BME280;32455;43.430;23.136;2023-03-04T11:53:38;98006.66;;;11.08;70.11
46722;BME280;32455;43.430;23.136;2023-03-04T11:56:35;97996.13;;;10.64;69.17
46722;BME280;32455;43.430;23.136;2023-03-04T12:02:23;97993.13;;;11.14;69.60
46722;BME280;32455;43.430;23.136;2023-03-04T12:11:50;97981.50;;;10.60;69.47
46722;BME280;32455;43.430;23.136;2023-03-04T12:26:37;97974.56;;;10.83;68.13
46722;BME280;32455;43.430;23.136;2023-03-04T12:32:40;97960.09;;;10.84;68.10
46722;BME280;32455;43.430;23.136;2023-03-04T12:35:40;97963.41;;;10.97;67.20
46722;BME280;32455;43.430;23.136;2023-03-04T12:45:21;97933.09;;;10.48;71.22
46722;BME280;32455;43.430;23.136;2023-03-04T12:48:24;97951.28;;;10.76;69.90
46722;BME280;32455;43.430;23.136;2023-03-04T12:54:33;97941.81;;;10.74;70.19
46722;BME280;32455;43.430;23.136;2023-03-04T12:57:25;97936.25;;;10.87;68.38
46722;BME280;32455;43.430;23.136;2023-03-04T13:00:21;97935.09;;;10.95;67.46
46722;BME280;32455;43.430;23.136;2023-03-04T13:09:55;97927.28;;;11.05;67.07
46722;BME280;32455;43.430;23.136;2023-03-04T13:12:51;97916.88;;;10.97;67.63
46722;BME280;32455;43.430;23.136;2023-03-04T13:15:37;97903.91;;;10.52;65.03
46722;BME280;32455;43.430;23.136;2023-03-04T13:18:32;97911.56;;;10.67;68.77
46722;BME280;32455;43.430;23.136;2023-03-04T13:21:23;97902.94;;;10.46;67.92
46722;BME280;32455;43.430;23.136;2023-03-04T13:24:44;97907.25;;;10.77;66.89
46722;BME280;32455;43.430;23.136;2023-03-04T13:33:38;97898.06;;;11.20;67.21
46722;BME280;32455;43.430;23.136;2023-03-04T13:36:30;97884.75;;;11.14;66.27
46722;BME280;32455;43.430;23.136;2023-03-04T13:42:03;97883.91;;;11.13;66.73
46722;BME280;32455;43.430;23.136;2023-03-04T13:45:48;97889.75;;;10.98;67.39
46722;BME280;32455;43.430;23.136;2023-03-04T13:48:34;97891.19;;;10.59;67.36
46722;BME280;32455;43.430;23.136;2023-03-04T13:51:30;97884.47;;;10.38;67.72
46722;BME280;32455;43.430;23.136;2023-03-04T13:54:24;97878.16;;;10.44;68.76
46722;BME280;32455;43.430;23.136;2023-03-04T13:57:18;97870.19;;;10.68;69.85
46722;BME280;32455;43.430;23.136;2023-03-04T14:00:11;97875.03;;;10.47;70.67
46722;BME280;32455;43.430;23.136;2023-03-04T14:03:11;97861.94;;;10.39;69.46
46722;BME280;32455;43.430;23.136;2023-03-04T14:06:16;97869.47;;;10.61;69.22
46722;BME280;32455;43.430;23.136;2023-03-04T14:09:16;97867.72;;;10.55;70.65
46722;BME280;32455;43.430;23.136;2023-03-04T14:12:13;97865.66;;;10.38;72.31
46722;BME280;32455;43.430;23.136;2023-03-04T14:15:26;97865.84;;;10.55;70.16
46722;BME280;32455;43.430;23.136;2023-03-04T14:18:11;97868.00;;;10.35;71.54
46722;BME280;32455;43.430;23.136;2023-03-04T14:20:57;97865.66;;;10.38;69.34
46722;BME280;32455;43.430;23.136;2023-03-04T14:23:44;97858.19;;;10.40;71.72
46722;BME280;32455;43.430;23.136;2023-03-04T14:26:29;97856.09;;;10.42;72.51
46722;BME280;32455;43.430;23.136;2023-03-04T14:29:23;97849.31;;;10.28;71.28
46722;BME280;32455;43.430;23.136;2023-03-04T14:32:10;97850.72;;;10.42;71.67
46722;BME280;32455;43.430;23.136;2023-03-04T14:35:14;97844.31;;;10.43;71.22
46722;BME280;32455;43.430;23.136;2023-03-04T14:38:11;97851.06;;;10.34;70.74
46722;BME280;32455;43.430;23.136;2023-03-04T14:41:11;97849.00;;;10.48;70.90
46722;BME280;32455;43.430;23.136;2023-03-04T14:50:17;97823.50;;;10.39;71.93
46722;BME280;32455;43.430;23.136;2023-03-04T14:53:14;97835.19;;;10.33;71.32
46722;BME280;32455;43.430;23.136;2023-03-04T14:56:08;97846.91;;;10.20;72.07
46722;BME280;32455;43.430;23.136;2023-03-04T14:58:55;97842.78;;;10.17;71.85
46722;BME280;32455;43.430;23.136;2023-03-04T15:01:42;97837.38;;;10.36;72.85
46722;BME280;32455;43.430;23.136;2023-03-04T15:04:29;97831.94;;;10.42;70.53
46722;BME280;32455;43.430;23.136;2023-03-04T15:07:28;97831.56;;;10.39;71.06
46722;BME280;32455;43.430;23.136;2023-03-04T15:10:22;97826.75;;;10.29;73.38
46722;BME280;32455;43.430;23.136;2023-03-04T15:13:08;97816.75;;;10.18;72.11
46722;BME280;32455;43.430;23.136;2023-03-04T15:16:00;97826.25;;;9.90;73.24
46722;BME280;32455;43.430;23.136;2023-03-04T15:21:41;97827.44;;;10.06;74.16
46722;BME280;32455;43.430;23.136;2023-03-04T15:24:27;97811.03;;;9.84;74.76
46722;BME280;32455;43.430;23.136;2023-03-04T15:27:12;97819.59;;;9.93;75.36
46722;BME280;32455;43.430;23.136;2023-03-04T15:29:59;97817.56;;;9.76;77.10
46722;BME280;32455;43.430;23.136;2023-03-04T15:32:46;97816.44;;;9.66;77.44
46722;BME280;32455;43.430;23.136;2023-03-04T15:35:32;97818.38;;;9.77;75.82
46722;BME280;32455;43.430;23.136;2023-03-04T15:38:17;97810.69;;;9.62;75.97
46722;BME280;32455;43.430;23.136;2023-03-04T15:41:02;97816.84;;;9.51;77.31
46722;BME280;32455;43.430;23.136;2023-03-04T15:43:48;97816.09;;;9.25;78.24
46722;BME280;32455;43.430;23.136;2023-03-04T15:46:34;97815.91;;;9.20;79.62
46722;BME280;32455;43.430;23.136;2023-03-04T15:49:19;97813.84;;;9.22;78.55
46722;BME280;32455;43.430;23.136;2023-03-04T15:52:08;97804.38;;;9.20;79.10
46722;BME280;32455;43.430;23.136;2023-03-04T15:54:57;97806.88;;;8.96;82.10
46722;BME280;32455;43.430;23.136;2023-03-04T15:57:45;97804.63;;;8.75;86.81
46722;BME280;32455;43.430;23.136;2023-03-04T16:00:31;97809.00;;;8.44;91.89
46722;BME280;32455;43.430;23.136;2023-03-04T16:03:19;97805.38;;;8.25;94.66
46722;BME280;32455;43.430;23.136;2023-03-04T16:06:11;97808.22;;;8.06;97.01
46722;BME280;32455;43.430;23.136;2023-03-04T16:08:57;97809.25;;;7.60;99.69
46722;BME280;32455;43.430;23.136;2023-03-04T16:11:44;97801.19;;;7.15;100.00
46722;BME280;32455;43.430;23.136;2023-03-04T16:14:31;97788.91;;;7.00;100.00